x

West Orca Bay - 8nm Nw Of Hinchinbrook Is , Ak (46060) Wave Buoy

10:50am - Mon 22nd Sep 2014 All times are AKDT. -8 hours from GMT.

  • Sig Wave height 2.0ft
  • Swell Direction
  • Peak Period 3s
  • Average Period 3s
  • Wind
    20mph, 25mph gusts
  • Sea Temp 54°f
  • Air Temp 53°f
  • Sea Pressure 1000.3mb
  • West Orca Bay - 8nm Nw Of Hinchinbrook  Is , Ak
  • West Orca Bay - 8nm Nw Of Hinchinbrook  Is , Ak

More Historic Weather Station data

Upgrade to MSW Pro to gain access to the past 30 days of data for over 8000 Wavebouys and Weather Stations around the globe.

Join Pro

Comparision Forecast

View Surf forecast
   
Mon 09/22 10:50am 2ft 3s 3s 20 25 mph 1000.3mb 54f 53f
9:50am 2ft 3s 3s 20 25 mph 999.2mb 54f 52f
8:50am 2ft 3s 3s 20 25 mph 998.2mb 54f 51f
7:50am 2ft 3s 3s 20 25 mph 997.1mb 54f 52f
6:50am 2ft 4s 4s 16 18 mph 996.2mb 54f 53f
5:50am 2.5ft 5s 4s 9 11 mph 995mb 54f 52f
4:50am 3ft 5s 4s 11 13 mph 993.9mb 54f 53f
3:50am 3.5ft 4s 4s 16 20 mph 992.1mb 54f 53f
2:50am  -   -   -  20 25 mph 990.9mb 54f 54f
1:50am 3.5ft 5s 4s 22 27 mph 989.6mb 54f 54f
12:50am  -   -   -  25 29 mph 988.4mb 54f 54f
Sun 09/21 11:50pm 3ft 5s 4s 22 27 mph 987.9mb 54f 55f
10:50pm 3.5ft 5s 4s 20 25 mph 987.8mb 54f 55f
9:50pm 3.5ft 5s 4s 22 27 mph 987.7mb 54f 55f
8:50pm 3.5ft 5s 4s 22 27 mph 987.7mb 54f 55f
7:50pm 2.5ft 5s 4s 20 22 mph 988.4mb 54f 55f
6:50pm 3ft 5s 4s 20 25 mph 989.2mb 54f 55f
5:50pm 3ft 5s 4s 20 22 mph 989.9mb 54f 55f
4:50pm 3ft 5s 4s 20 22 mph 990.8mb 54f 55f
3:50pm 2.5ft 4s 4s 20 25 mph 991.9mb 54f 54f
2:50pm 2ft 4s 4s 18 20 mph 993.4mb 54f 53f
1:50pm 1.6ft 7s 4s 16 20 mph 994.9mb 54f 52f
12:50pm 1.3ft 7s 4s 13 16 mph 996.7mb 54f 51f
11:50am 1.3ft 15s 4s 13 18 mph 998mb 54f 51f
10:50am 1.6ft 15s 4s 11 13 mph 999.4mb 54f 50f
9:50am 1.6ft 8s 4s 11 13 mph 1000.6mb 54f 50f
8:50am 1.3ft 8s 6s 9 11 mph 1001.6mb 54f 50f
7:50am 1.3ft 15s 7s 7 9 mph 1002.5mb 53f 51f
6:50am 1ft 13s 6s 4 7 mph 1003.5mb 53f 51f
5:50am 1ft 7s 6s 7 9 mph 1004.2mb 53f 51f
4:50am 1ft 16s 6s 9 11 mph 1004.8mb 54f 51f
3:50am 1ft 8s 4s 9
mph
1005.3mb 54f 50f
2:50am 1.3ft 15s 4s 11 13 mph 1005.5mb 54f 51f
1:50am 1.3ft 8s 4s 11 13 mph 1005.7mb 54f 51f
12:50am 1.6ft 16s 4s 13 16 mph 1005.8mb 54f 51f
Sat 09/20 11:50pm 1.6ft 8s 4s 16 18 mph 1005.9mb 54f 51f
10:50pm 1.6ft 7s 5s 13 16 mph 1006mb 54f 51f
9:50pm 1.6ft 7s 6s 9 11 mph 1005.9mb 54f 51f
8:50pm 2ft 7s 5s 7 9 mph 1005.7mb 54f 52f
7:50pm 1.6ft 8s 5s 9 11 mph 1005.6mb 54f 52f
6:50pm 2ft 7s 4s 11 13 mph 1005.2mb 54f 52f
5:50pm 2ft 9s 4s 16 18 mph 1004.7mb 54f 52f
4:50pm 2ft 9s 5s 16 18 mph 1004.5mb 54f 52f
3:50pm 1.3ft 8s 4s 13 16 mph 1004.4mb 54f 51f
2:50pm 1.6ft 8s 4s 11 13 mph 1004.5mb 54f 51f
1:50pm 2ft 10s 4s 18 20 mph 1004mb 54f 51f
12:50pm 2ft 10s 4s 18 20 mph 1003.6mb 54f 51f
11:50am 2.5ft 10s 4s 16 22 mph 1003.2mb 55f 51f
10:50am 2ft 8s 5s 16 20 mph 1002.9mb 55f 51f
9:50am 1.6ft 8s 5s 16 18 mph 1002.9mb 54f 51f
8:50am 2ft 9s 6s 11 13 mph 1002.8mb 54f 51f
7:50am 2ft 10s 6s 9 11 mph 1002.8mb 54f 50f
6:50am 2ft 8s 6s 9 11 mph 1002.7mb 54f 51f
5:50am 1.6ft 10s 4s 9 13 mph 1002.9mb 54f 51f
4:50am 1.6ft 11s 3s 11 13 mph 1003.1mb 54f 50f
3:50am 2.5ft 4s 3s 16 20 mph 1002.9mb 54f 50f
2:50am 2.5ft 9s 4s 18 22 mph 1002.5mb 54f 51f
1:50am 2.5ft 3s 4s 9 13 mph 1002.7mb 54f 52f
12:50am 2ft 3s 3s 22 27 mph 1002.1mb 54f 53f
Fri 09/19 11:50pm 1.6ft 5s 4s 11 16 mph 1002.1mb 54f 54f
10:50pm 2.5ft 8s 4s 13
mph
1001.8mb 54f 55f
9:50pm 2.5ft 11s 4s 16 18 mph 1001.5mb 54f 55f
8:50pm 2.5ft 4s 4s 16 20 mph 1000.7mb 54f 56f
7:50pm 3ft 4s 3s 22 29 mph 999.3mb 54f 56f
6:50pm 2.5ft 3s 3s 27 34 mph 997.1mb 54f 55f
5:50pm 2.5ft 3s 3s 27 31 mph 994.7mb 54f 54f
4:50pm 2.5ft 3s 3s 25 29 mph 993.1mb 54f 53f
3:50pm 1.6ft 9s 4s 25 29 mph 992.3mb 54f 54f
2:50pm 1.3ft 10s 7s 13 16 mph 992mb 54f 53f
1:50pm 1.6ft 10s 7s 11 13 mph 991.1mb 53f 53f
12:50pm 1.3ft 10s 7s 7 9 mph 990.5mb 54f 53f
11:50am 1.3ft 9s 5s 9 11 mph 989.6mb 54f 53f
10:50am 1.3ft 8s 5s 9 11 mph 988.8mb 53f 53f
9:50am 1.6ft 8s 5s 11
mph
987.9mb 54f 53f
8:50am 1.6ft 11s 5s 7
mph
987.1mb 54f 54f
7:50am 1.6ft 9s 5s 4 7 mph 986.5mb 54f 54f
6:50am 1.6ft 16s 5s 2 4 mph 985.9mb 54f 54f
5:50am 2ft 8s 5s 9 11 mph 985.2mb 54f 53f
4:50am 1.6ft 8s 5s 9 11 mph 984.7mb 54f 54f
3:50am 1ft 11s 4s 11 16 mph 984.1mb 54f 53f
2:50am 1.6ft 7s 6s 7 9 mph 984mb 54f 54f
1:50am 2.5ft 8s 6s 9 11 mph 983.7mb 54f 53f
12:50am 2ft 8s 6s 11 13 mph 983mb 54f 53f
Thu 09/18 11:50pm 2ft 9s 6s 7 9 mph 982.6mb 54f 53f
10:50pm 2.5ft 8s 6s 7
mph
982.3mb 55f 53f
9:50pm 2.5ft 11s 6s 9 11 mph 982.1mb 55f 53f
8:50pm 3.5ft 9s 5s 7 11 mph 981.5mb 55f 55f